Terminal Aerodrome Forecast
Issued by NWS Twin Cities, MN

Home | Current Version | Previous Version | Graphics & Text | Print | Product List | Glossary On
Versions: 1 2 3 4 5 6 7 8 9 10 11 12 13 14 15 16 17 18 19 20 21
000
FTUS43 KMPX 021740
TAFEAU
TAF
KEAU 021740Z 0218/0318 09007KT P6SM SCT008 BKN035
      TEMPO 0218/0220 P6SM VCTS BKN008 BKN040CB
     FM022000 10007KT P6SM SCT012 BKN040
      TEMPO 0220/0222 BKN012 BKN040
     FM030000 10004KT P6SM SCT040
     FM030400 11004KT 5SM BR FEW008
     FM030700 11004KT 2SM BR OVC006
     FM031500 13006KT P6SM SCT008 BKN015=

USA.gov is the U.S. government's official web portal to all federal, state and local government web resources and services.